createdAt,value
2022-10-09T00:00:13.216Z,8.20
2022-10-09T00:00:59.097Z,8.20
2022-10-09T00:01:45.057Z,8.20
2022-10-09T00:02:31.136Z,8.20
2022-10-09T00:03:17.124Z,8.20
2022-10-09T00:04:03.087Z,8.10
2022-10-09T00:04:49.794Z,8.10
2022-10-09T00:05:35.179Z,8.10
2022-10-09T00:06:21.115Z,8.10
2022-10-09T00:07:07.136Z,8.10
2022-10-09T00:07:53.157Z,8.10
2022-10-09T00:08:39.093Z,8.00
2022-10-09T00:09:25.107Z,8.00
2022-10-09T00:10:11.309Z,8.00
2022-10-09T00:10:57.278Z,8.00
2022-10-09T00:11:43.155Z,8.00
2022-10-09T00:12:29.099Z,8.00
2022-10-09T00:13:15.145Z,8.00
2022-10-09T00:14:01.091Z,8.00
2022-10-09T00:14:47.111Z,7.90
2022-10-09T00:15:33.617Z,7.90
2022-10-09T00:16:19.203Z,7.90
2022-10-09T00:17:05.231Z,7.90
2022-10-09T00:17:51.292Z,7.90
2022-10-09T00:18:37.102Z,7.90
2022-10-09T00:19:23.162Z,7.90
2022-10-09T00:20:09.113Z,7.90
2022-10-09T00:20:55.225Z,7.90
2022-10-09T00:21:41.111Z,7.90
2022-10-09T00:22:27.207Z,7.80
2022-10-09T00:23:13.142Z,7.80
2022-10-09T00:23:59.189Z,7.80
2022-10-09T00:24:45.131Z,7.80
2022-10-09T00:25:31.166Z,7.80
2022-10-09T00:26:17.156Z,7.80
2022-10-09T00:27:03.171Z,7.80
2022-10-09T00:27:49.916Z,7.80
2022-10-09T00:28:38.445Z,7.80
2022-10-09T00:29:21.152Z,7.80
2022-10-09T00:30:07.211Z,7.80
2022-10-09T00:30:53.477Z,7.80
2022-10-09T00:31:39.180Z,7.80
2022-10-09T00:32:25.233Z,7.80
2022-10-09T00:33:11.145Z,7.80
2022-10-09T00:33:57.309Z,7.80
2022-10-09T00:34:43.221Z,7.80
2022-10-09T00:35:29.181Z,7.80
2022-10-09T00:36:15.135Z,7.70
2022-10-09T00:37:01.179Z,7.70
2022-10-09T00:37:47.255Z,7.70
2022-10-09T00:38:33.320Z,7.70
2022-10-09T00:39:19.231Z,7.70
2022-10-09T00:40:05.161Z,7.70
2022-10-09T00:40:51.308Z,7.70
2022-10-09T00:41:37.232Z,7.60
2022-10-09T00:42:23.265Z,7.60
2022-10-09T00:43:09.160Z,7.60
2022-10-09T00:43:55.245Z,7.60
2022-10-09T00:44:41.229Z,7.60
2022-10-09T00:45:27.274Z,7.60
2022-10-09T00:46:13.396Z,7.60
2022-10-09T00:46:59.185Z,7.60
2022-10-09T00:47:45.196Z,7.60
2022-10-09T00:48:31.182Z,7.50
2022-10-09T00:49:17.219Z,7.50
2022-10-09T00:50:03.356Z,7.50
2022-10-09T00:50:50.009Z,7.50
2022-10-09T00:51:35.180Z,7.50
2022-10-09T00:52:21.262Z,7.50
2022-10-09T00:53:07.266Z,7.50
2022-10-09T00:53:53.413Z,7.50
2022-10-09T00:54:39.218Z,7.50
2022-10-09T00:55:25.264Z,7.50
2022-10-09T00:56:11.260Z,7.50
2022-10-09T00:56:57.227Z,7.50
2022-10-09T00:57:43.305Z,7.50
2022-10-09T00:58:29.203Z,7.50
2022-10-09T00:59:15.271Z,7.50
2022-10-09T01:00:01.950Z,7.50
2022-10-09T01:00:47.238Z,7.50
2022-10-09T01:01:33.411Z,7.50
2022-10-09T01:02:19.352Z,7.50
2022-10-09T01:03:05.319Z,7.50
2022-10-09T01:03:51.228Z,7.50
2022-10-09T01:04:37.225Z,7.50
2022-10-09T01:05:23.296Z,7.50
2022-10-09T01:06:09.245Z,7.50
2022-10-09T01:06:55.300Z,7.40
2022-10-09T01:07:41.254Z,7.40
2022-10-09T01:08:27.255Z,7.40
2022-10-09T01:09:13.288Z,7.40
2022-10-09T01:09:59.346Z,7.40
2022-10-09T01:10:45.330Z,7.40
2022-10-09T01:11:31.230Z,7.40
2022-10-09T01:12:17.277Z,7.40
2022-10-09T01:13:03.263Z,7.40
2022-10-09T01:13:50.005Z,7.40
2022-10-09T01:14:35.289Z,7.30
2022-10-09T01:15:21.409Z,7.30
2022-10-09T01:16:07.441Z,7.30
2022-10-09T01:16:53.399Z,7.30
2022-10-09T01:17:39.344Z,7.30
2022-10-09T01:18:25.344Z,7.30
2022-10-09T01:19:11.276Z,7.20
2022-10-09T01:19:57.260Z,7.20
2022-10-09T01:20:43.294Z,7.20
2022-10-09T01:21:29.280Z,7.20
2022-10-09T01:22:15.339Z,7.20
2022-10-09T01:23:01.275Z,7.20
2022-10-09T01:23:47.255Z,7.20
2022-10-09T01:24:33.403Z,7.20
2022-10-09T01:25:19.338Z,7.20
2022-10-09T01:26:05.298Z,7.20
2022-10-09T01:26:51.356Z,7.20
2022-10-09T01:27:37.286Z,7.20
2022-10-09T01:28:23.420Z,7.20
2022-10-09T01:29:09.373Z,7.20
2022-10-09T01:29:55.392Z,7.20
2022-10-09T01:30:41.362Z,7.20
2022-10-09T01:31:27.404Z,7.20
2022-10-09T01:32:13.357Z,7.20
2022-10-09T01:32:59.335Z,7.20
2022-10-09T01:33:45.394Z,7.20
2022-10-09T01:34:31.369Z,7.20
2022-10-09T01:35:17.296Z,7.20
2022-10-09T01:36:03.467Z,7.20
2022-10-09T01:36:49.842Z,7.20
2022-10-09T01:37:35.336Z,7.20
2022-10-09T01:38:21.301Z,7.20
2022-10-09T01:39:07.479Z,7.20
2022-10-09T01:39:53.361Z,7.10
2022-10-09T01:40:39.317Z,7.10
2022-10-09T01:41:25.443Z,7.20
2022-10-09T01:42:11.359Z,7.20
2022-10-09T01:42:57.290Z,7.20
2022-10-09T01:43:43.361Z,7.20
2022-10-09T01:44:29.515Z,7.20
2022-10-09T01:45:15.540Z,7.20
2022-10-09T01:46:01.423Z,7.20
2022-10-09T01:46:47.315Z,7.20
2022-10-09T01:47:33.366Z,7.20
2022-10-09T01:48:19.388Z,7.20
2022-10-09T01:49:05.352Z,7.20
2022-10-09T01:49:51.487Z,7.20
2022-10-09T01:50:37.349Z,7.20
2022-10-09T01:51:23.373Z,7.20
2022-10-09T01:52:09.378Z,7.10
2022-10-09T01:52:55.422Z,7.10
2022-10-09T01:53:41.416Z,7.20
2022-10-09T01:54:27.386Z,7.20
2022-10-09T01:55:13.408Z,7.20
2022-10-09T01:55:59.366Z,7.10
2022-10-09T01:56:45.418Z,7.10
2022-10-09T01:57:31.487Z,7.10
2022-10-09T01:58:17.370Z,7.10
2022-10-09T01:59:03.393Z,7.10
2022-10-09T01:59:49.959Z,7.20
2022-10-09T02:00:35.513Z,7.20
2022-10-09T02:01:21.467Z,7.10
2022-10-09T02:02:07.504Z,7.10
2022-10-09T02:02:53.809Z,7.10
2022-10-09T02:03:39.485Z,7.10
2022-10-09T02:04:25.454Z,7.10
2022-10-09T02:05:11.355Z,7.10
2022-10-09T02:05:57.403Z,7.00
2022-10-09T02:06:43.457Z,7.00
2022-10-09T02:07:29.502Z,7.00
2022-10-09T02:08:15.402Z,7.00
2022-10-09T02:09:01.544Z,7.00
2022-10-09T02:09:47.393Z,7.00
2022-10-09T02:10:33.805Z,7.00
2022-10-09T02:11:19.457Z,7.00
2022-10-09T02:12:05.421Z,7.00
2022-10-09T02:12:51.729Z,7.00
2022-10-09T02:13:37.392Z,7.00
2022-10-09T02:14:23.429Z,7.00
2022-10-09T02:15:09.494Z,7.00
2022-10-09T02:15:55.565Z,7.00
2022-10-09T02:16:41.467Z,7.00
2022-10-09T02:17:27.397Z,7.00
2022-10-09T02:18:13.456Z,7.00
2022-10-09T02:18:59.473Z,6.90
2022-10-09T02:19:45.453Z,6.90
2022-10-09T02:20:31.569Z,6.90
2022-10-09T02:21:17.425Z,6.90
2022-10-09T02:22:03.516Z,6.90
2022-10-09T02:22:50.631Z,6.90
2022-10-09T02:23:35.452Z,6.90
2022-10-09T02:24:21.402Z,6.80
2022-10-09T02:25:07.465Z,6.80
2022-10-09T02:25:53.452Z,6.80
2022-10-09T02:26:39.463Z,6.80
2022-10-09T02:27:25.621Z,6.80
2022-10-09T02:28:11.521Z,6.80
2022-10-09T02:28:57.444Z,6.80
2022-10-09T02:29:43.581Z,6.80
2022-10-09T02:30:29.697Z,6.80
2022-10-09T02:31:15.490Z,6.80
2022-10-09T02:32:01.490Z,6.80
2022-10-09T02:32:47.656Z,6.80
2022-10-09T02:33:33.473Z,6.80
2022-10-09T02:34:19.459Z,6.80
2022-10-09T02:35:05.454Z,6.80
2022-10-09T02:35:51.515Z,6.80
2022-10-09T02:36:37.456Z,6.80
2022-10-09T02:37:23.523Z,6.80
2022-10-09T02:38:09.481Z,6.80
2022-10-09T02:38:55.562Z,6.80
2022-10-09T02:39:41.573Z,6.80
2022-10-09T02:40:27.549Z,6.80
2022-10-09T02:41:13.546Z,6.80
2022-10-09T02:41:59.502Z,6.80
2022-10-09T02:42:45.567Z,6.80
2022-10-09T02:43:31.512Z,6.80
2022-10-09T02:44:17.524Z,6.80
2022-10-09T02:45:03.638Z,6.80
2022-10-09T02:45:50.203Z,6.80
2022-10-09T02:46:35.612Z,6.80
2022-10-09T02:47:21.479Z,6.80
2022-10-09T02:48:07.477Z,6.80
2022-10-09T02:48:53.515Z,6.80
2022-10-09T02:49:39.493Z,6.80
2022-10-09T02:50:25.612Z,6.80
2022-10-09T02:51:11.512Z,6.80
2022-10-09T02:51:57.479Z,6.80
2022-10-09T02:52:43.565Z,6.80
2022-10-09T02:53:29.489Z,6.80
2022-10-09T02:54:15.496Z,6.80
2022-10-09T02:55:01.566Z,6.80
2022-10-09T02:55:47.483Z,6.90
2022-10-09T02:56:37.983Z,6.90
2022-10-09T02:57:19.503Z,6.90
2022-10-09T02:58:05.465Z,6.90
2022-10-09T02:58:51.463Z,6.90
2022-10-09T02:59:37.459Z,6.90
2022-10-09T03:00:23.639Z,6.90
2022-10-09T03:01:09.482Z,6.90
2022-10-09T03:01:55.657Z,6.90
2022-10-09T03:02:41.571Z,6.90
2022-10-09T03:03:27.566Z,6.90
2022-10-09T03:04:13.513Z,6.90
2022-10-09T03:04:59.514Z,6.90
2022-10-09T03:05:45.487Z,6.90
2022-10-09T03:06:31.535Z,6.90
2022-10-09T03:07:17.510Z,6.90
2022-10-09T03:08:03.475Z,6.90
2022-10-09T03:08:50.056Z,6.90
2022-10-09T03:09:35.525Z,6.90
2022-10-09T03:10:21.619Z,6.90
2022-10-09T03:11:07.499Z,6.90
2022-10-09T03:11:53.539Z,6.90
2022-10-09T03:12:39.488Z,6.90
2022-10-09T03:13:25.547Z,6.90
2022-10-09T03:14:11.493Z,6.90
2022-10-09T03:14:57.505Z,6.90
2022-10-09T03:15:43.688Z,6.90
2022-10-09T03:16:29.688Z,6.90
2022-10-09T03:17:15.510Z,6.90
2022-10-09T03:18:01.585Z,6.90
2022-10-09T03:18:47.484Z,6.90
2022-10-09T03:19:33.517Z,6.90
2022-10-09T03:20:19.540Z,6.90
2022-10-09T03:21:05.495Z,6.90
2022-10-09T03:21:51.543Z,6.90
2022-10-09T03:22:37.526Z,6.90
2022-10-09T03:23:23.594Z,6.90
2022-10-09T03:24:09.523Z,6.90
2022-10-09T03:24:55.565Z,6.90
2022-10-09T03:25:41.557Z,6.90
2022-10-09T03:26:27.556Z,6.90
2022-10-09T03:27:13.620Z,6.80
2022-10-09T03:27:59.552Z,6.80
2022-10-09T03:28:45.670Z,6.80
2022-10-09T03:29:31.614Z,6.80
2022-10-09T03:30:17.589Z,6.80
2022-10-09T03:31:03.670Z,6.80
2022-10-09T03:31:52.820Z,6.80
2022-10-09T03:32:35.575Z,6.80
2022-10-09T03:33:21.570Z,6.80
2022-10-09T03:34:07.543Z,6.80
2022-10-09T03:34:53.580Z,6.80
2022-10-09T03:35:39.596Z,6.80
2022-10-09T03:36:25.604Z,6.80
2022-10-09T03:37:11.551Z,6.80
2022-10-09T03:37:57.595Z,6.80
2022-10-09T03:38:43.637Z,6.80
2022-10-09T03:39:29.590Z,6.80
2022-10-09T03:40:15.569Z,6.80
2022-10-09T03:41:01.607Z,6.80
2022-10-09T03:41:47.600Z,6.80
2022-10-09T03:42:33.578Z,6.80
2022-10-09T03:43:19.612Z,6.80
2022-10-09T03:44:05.602Z,6.80
2022-10-09T03:44:51.643Z,6.80
2022-10-09T03:45:37.615Z,6.80
2022-10-09T03:46:23.702Z,6.80
2022-10-09T03:47:09.593Z,6.80
2022-10-09T03:47:55.667Z,6.80
2022-10-09T03:48:41.604Z,6.80
2022-10-09T03:49:27.585Z,6.80
2022-10-09T03:50:13.631Z,6.80
2022-10-09T03:50:59.586Z,6.80
2022-10-09T03:51:45.595Z,6.80
2022-10-09T03:52:31.628Z,6.80
2022-10-09T03:53:17.591Z,6.80
2022-10-09T03:54:03.626Z,6.80
2022-10-09T03:54:50.064Z,6.80
2022-10-09T03:55:35.600Z,6.80
2022-10-09T03:56:21.673Z,6.80
2022-10-09T03:57:07.633Z,6.80
2022-10-09T03:57:53.740Z,6.80
2022-10-09T03:58:39.600Z,6.80
2022-10-09T03:59:25.642Z,6.80
2022-10-09T04:00:11.697Z,6.80
2022-10-09T04:00:57.704Z,6.80
2022-10-09T04:01:43.717Z,6.80
2022-10-09T04:02:29.858Z,6.80
2022-10-09T04:03:15.612Z,6.80
2022-10-09T04:04:02.074Z,6.80
2022-10-09T04:04:47.605Z,6.80
2022-10-09T04:05:33.654Z,6.80
2022-10-09T04:06:19.620Z,6.80
2022-10-09T04:07:05.639Z,6.80
2022-10-09T04:07:51.668Z,6.80
2022-10-09T04:08:37.619Z,6.80
2022-10-09T04:09:23.719Z,6.80
2022-10-09T04:10:09.664Z,6.80
2022-10-09T04:10:55.688Z,6.80
2022-10-09T04:11:41.637Z,6.80
2022-10-09T04:12:27.633Z,6.80
2022-10-09T04:13:13.677Z,6.80
2022-10-09T04:13:59.703Z,6.80
2022-10-09T04:14:45.680Z,6.80
2022-10-09T04:15:31.739Z,6.80
2022-10-09T04:16:17.694Z,6.80
2022-10-09T04:17:03.658Z,6.80
2022-10-09T04:17:50.197Z,6.80
2022-10-09T04:18:35.663Z,6.80
2022-10-09T04:19:21.689Z,6.80
2022-10-09T04:20:07.646Z,6.70
2022-10-09T04:20:53.651Z,6.70
2022-10-09T04:21:39.683Z,6.80
2022-10-09T04:22:25.795Z,6.80
2022-10-09T04:23:11.680Z,6.80
2022-10-09T04:23:57.680Z,6.70
2022-10-09T04:24:43.701Z,6.70
2022-10-09T04:25:29.723Z,6.70
2022-10-09T04:26:15.673Z,6.70
2022-10-09T04:27:01.681Z,6.70
2022-10-09T04:27:47.747Z,6.70
2022-10-09T04:28:33.781Z,6.70
2022-10-09T04:29:19.694Z,6.70
2022-10-09T04:30:05.747Z,6.70
2022-10-09T04:30:51.788Z,6.70
2022-10-09T04:31:37.765Z,6.70
2022-10-09T04:32:23.666Z,6.70
2022-10-09T04:33:12.949Z,6.70
2022-10-09T04:33:55.751Z,6.70
2022-10-09T04:34:41.752Z,6.70
2022-10-09T04:35:27.693Z,6.70
2022-10-09T04:36:13.768Z,6.70
2022-10-09T04:36:59.710Z,6.70
2022-10-09T04:37:45.734Z,6.70
2022-10-09T04:38:31.744Z,6.70
2022-10-09T04:39:17.711Z,6.70
2022-10-09T04:40:03.743Z,6.60
2022-10-09T04:40:50.363Z,6.60
2022-10-09T04:41:38.293Z,6.60
2022-10-09T04:42:21.765Z,6.70
2022-10-09T04:43:07.709Z,6.60
2022-10-09T04:43:53.780Z,6.60
2022-10-09T04:44:39.711Z,6.60
2022-10-09T04:45:25.921Z,6.60
2022-10-09T04:46:11.812Z,6.60
2022-10-09T04:46:57.716Z,6.60
2022-10-09T04:47:43.711Z,6.60
2022-10-09T04:48:29.701Z,6.60
2022-10-09T04:49:15.745Z,6.60
2022-10-09T04:50:01.749Z,6.60
2022-10-09T04:50:47.725Z,6.60
2022-10-09T04:51:33.708Z,6.60
2022-10-09T04:52:19.768Z,6.60
2022-10-09T04:53:05.772Z,6.60
2022-10-09T04:53:51.802Z,6.50
2022-10-09T04:54:37.779Z,6.50
2022-10-09T04:55:23.763Z,6.50
2022-10-09T04:56:09.758Z,6.50
2022-10-09T04:56:55.848Z,6.50
2022-10-09T04:57:41.756Z,6.50
2022-10-09T04:58:27.732Z,6.50
2022-10-09T04:59:13.782Z,6.50
2022-10-09T04:59:59.842Z,6.50
2022-10-09T05:00:45.935Z,6.50
2022-10-09T05:01:37.076Z,6.50
2022-10-09T05:02:17.833Z,6.50
2022-10-09T05:03:03.844Z,6.50
2022-10-09T05:03:49.924Z,6.50
2022-10-09T05:04:35.773Z,6.50
2022-10-09T05:05:21.816Z,6.50
2022-10-09T05:06:07.754Z,6.50
2022-10-09T05:06:53.913Z,6.50
2022-10-09T05:07:39.788Z,6.50
2022-10-09T05:08:25.845Z,6.50
2022-10-09T05:09:11.763Z,6.50
2022-10-09T05:09:57.765Z,6.50
2022-10-09T05:10:43.809Z,6.50
2022-10-09T05:11:29.765Z,6.50
2022-10-09T05:12:15.783Z,6.50
2022-10-09T05:13:01.828Z,6.50
2022-10-09T05:13:47.782Z,6.50
2022-10-09T05:14:33.777Z,6.50
2022-10-09T05:15:19.882Z,6.50
2022-10-09T05:16:05.911Z,6.50
2022-10-09T05:17:12.604Z,6.50
2022-10-09T05:17:37.881Z,6.50
2022-10-09T05:18:23.779Z,6.50
2022-10-09T05:19:09.831Z,6.50
2022-10-09T05:19:55.885Z,6.50
2022-10-09T05:20:41.819Z,6.40
2022-10-09T05:21:27.780Z,6.40
2022-10-09T05:22:13.913Z,6.40
2022-10-09T05:22:59.913Z,6.40
2022-10-09T05:23:45.904Z,6.40
2022-10-09T05:24:31.857Z,6.40
2022-10-09T05:25:17.816Z,6.40
2022-10-09T05:26:03.803Z,6.40
2022-10-09T05:26:50.067Z,6.40
2022-10-09T05:27:35.839Z,6.40
2022-10-09T05:28:21.912Z,6.40
2022-10-09T05:29:07.811Z,6.40
2022-10-09T05:29:53.827Z,6.40
2022-10-09T05:30:39.903Z,6.40
2022-10-09T05:31:26.051Z,6.40
2022-10-09T05:32:11.939Z,6.40
2022-10-09T05:32:57.867Z,6.40
2022-10-09T05:33:43.853Z,6.40
2022-10-09T05:34:29.908Z,6.40
2022-10-09T05:35:15.890Z,6.30
2022-10-09T05:36:02.207Z,6.30
2022-10-09T05:36:47.821Z,6.30
2022-10-09T05:37:33.858Z,6.30
2022-10-09T05:38:19.841Z,6.30
2022-10-09T05:39:05.875Z,6.30
2022-10-09T05:39:51.938Z,6.30
2022-10-09T05:40:37.833Z,6.30
2022-10-09T05:41:23.860Z,6.30
2022-10-09T05:42:09.877Z,6.30
2022-10-09T05:42:55.967Z,6.30
2022-10-09T05:43:41.919Z,6.30
2022-10-09T05:44:27.900Z,6.30
2022-10-09T05:45:14.049Z,6.30
2022-10-09T05:46:00.076Z,6.30
2022-10-09T05:46:45.908Z,6.30
2022-10-09T05:47:31.975Z,6.30
2022-10-09T05:48:17.901Z,6.30
2022-10-09T05:49:03.970Z,6.30
2022-10-09T05:49:50.178Z,6.30
2022-10-09T05:50:35.978Z,6.30
2022-10-09T05:51:21.953Z,6.30
2022-10-09T05:52:07.993Z,6.30
2022-10-09T05:52:53.929Z,6.30
2022-10-09T05:53:39.931Z,6.30
2022-10-09T05:54:26.030Z,6.30
2022-10-09T05:55:11.913Z,6.30
2022-10-09T05:56:01.594Z,6.30
2022-10-09T05:56:43.948Z,6.30
2022-10-09T05:57:29.921Z,6.30
2022-10-09T05:58:15.941Z,6.30
2022-10-09T05:59:02.075Z,6.30
2022-10-09T05:59:47.947Z,6.30
2022-10-09T06:00:34.049Z,6.30
2022-10-09T06:01:19.963Z,6.30
2022-10-09T06:02:06.021Z,6.30
2022-10-09T06:02:52.452Z,6.30
2022-10-09T06:03:37.978Z,6.30
2022-10-09T06:04:24.022Z,6.30
2022-10-09T06:05:09.925Z,6.30
2022-10-09T06:05:56.034Z,6.30
2022-10-09T06:06:41.955Z,6.30
2022-10-09T06:07:27.968Z,6.30
2022-10-09T06:08:14.062Z,6.30
2022-10-09T06:09:00.010Z,6.30
2022-10-09T06:09:45.952Z,6.30
2022-10-09T06:10:32.634Z,6.30
2022-10-09T06:11:18.041Z,6.30
2022-10-09T06:12:04.013Z,6.30
2022-10-09T06:12:50.666Z,6.30
2022-10-09T06:13:36.002Z,6.30
2022-10-09T06:14:22.360Z,6.30
2022-10-09T06:15:08.103Z,6.30
2022-10-09T06:15:53.989Z,6.30
2022-10-09T06:16:40.021Z,6.30
2022-10-09T06:17:26.009Z,6.30
2022-10-09T06:18:12.006Z,6.30
2022-10-09T06:18:58.007Z,6.30
2022-10-09T06:19:44.048Z,6.30
2022-10-09T06:20:30.137Z,6.40
2022-10-09T06:21:15.970Z,6.40
2022-10-09T06:22:02.085Z,6.40
2022-10-09T06:22:48.207Z,6.40
2022-10-09T06:23:34.044Z,6.40
2022-10-09T06:24:22.256Z,6.40
2022-10-09T06:25:06.023Z,6.40
2022-10-09T06:25:52.067Z,6.40
2022-10-09T06:26:37.983Z,6.40
2022-10-09T06:27:24.055Z,6.40
2022-10-09T06:28:10.091Z,6.40
2022-10-09T06:28:56.086Z,6.50
2022-10-09T06:29:41.991Z,6.50
2022-10-09T06:30:28.228Z,6.50
2022-10-09T06:31:14.161Z,6.50
2022-10-09T06:32:00.019Z,6.50
2022-10-09T06:32:45.977Z,6.50
2022-10-09T06:33:32.045Z,6.50
2022-10-09T06:34:18.129Z,6.50
2022-10-09T06:35:04.132Z,6.50
2022-10-09T06:35:50.017Z,6.50
2022-10-09T06:36:36.030Z,6.50
2022-10-09T06:37:22.018Z,6.50
2022-10-09T06:38:08.012Z,6.50
2022-10-09T06:38:54.044Z,6.60
2022-10-09T06:39:40.062Z,6.60
2022-10-09T06:40:26.096Z,6.60
2022-10-09T06:41:12.014Z,6.60
2022-10-09T06:41:58.030Z,6.60
2022-10-09T06:42:44.047Z,6.60
2022-10-09T06:43:30.087Z,6.70
2022-10-09T06:44:16.833Z,6.70
2022-10-09T06:45:02.430Z,6.70
2022-10-09T06:45:48.079Z,6.70
2022-10-09T06:46:34.065Z,6.70
2022-10-09T06:47:20.079Z,6.70
2022-10-09T06:48:06.078Z,6.70
2022-10-09T06:48:52.095Z,6.80
2022-10-09T06:49:38.071Z,6.80
2022-10-09T06:50:24.087Z,6.80
2022-10-09T06:51:10.099Z,6.80
2022-10-09T06:51:56.117Z,6.80
2022-10-09T06:52:42.078Z,6.90
2022-10-09T06:53:28.116Z,6.90
2022-10-09T06:54:14.108Z,6.90
2022-10-09T06:55:00.110Z,6.90
2022-10-09T06:55:46.119Z,6.90
2022-10-09T06:56:32.102Z,7.00
2022-10-09T06:57:18.090Z,7.00
2022-10-09T06:58:04.969Z,7.00
2022-10-09T06:58:50.187Z,7.00
2022-10-09T06:59:36.149Z,7.10
2022-10-09T07:00:22.161Z,7.10
2022-10-09T07:01:08.160Z,7.10
2022-10-09T07:01:54.184Z,7.10
2022-10-09T07:02:43.902Z,7.10
2022-10-09T07:03:26.143Z,7.20
2022-10-09T07:04:12.144Z,7.20
2022-10-09T07:04:58.082Z,7.20
2022-10-09T07:05:44.102Z,7.20
2022-10-09T07:06:30.117Z,7.20
2022-10-09T07:07:16.102Z,7.30
2022-10-09T07:08:02.322Z,7.30
2022-10-09T07:08:48.138Z,7.30
2022-10-09T07:09:34.135Z,7.40
2022-10-09T07:10:24.946Z,7.40
2022-10-09T07:11:06.115Z,7.40
2022-10-09T07:11:52.102Z,7.40
2022-10-09T07:12:38.117Z,7.40
2022-10-09T07:13:24.153Z,7.50
2022-10-09T07:14:10.160Z,7.50
2022-10-09T07:14:56.097Z,7.50
2022-10-09T07:15:42.261Z,7.50
2022-10-09T07:16:28.198Z,7.50
2022-10-09T07:17:14.167Z,7.50
2022-10-09T07:18:00.152Z,7.60
2022-10-09T07:18:46.172Z,7.60
2022-10-09T07:19:32.134Z,7.60
2022-10-09T07:20:18.193Z,7.60
2022-10-09T07:21:04.224Z,7.60
2022-10-09T07:21:50.210Z,7.70
2022-10-09T07:22:36.188Z,7.70
2022-10-09T07:23:22.195Z,7.70
2022-10-09T07:24:08.156Z,7.70
2022-10-09T07:24:54.192Z,7.80
2022-10-09T07:25:40.203Z,7.80
2022-10-09T07:26:26.139Z,7.80
2022-10-09T07:27:12.187Z,7.80
2022-10-09T07:27:58.197Z,7.80
2022-10-09T07:28:44.250Z,7.90
2022-10-09T07:29:30.147Z,7.90
2022-10-09T07:30:16.219Z,7.90
2022-10-09T07:31:02.321Z,7.90
2022-10-09T07:31:48.208Z,7.90
2022-10-09T07:32:34.200Z,8.00
2022-10-09T07:33:20.143Z,8.00
2022-10-09T07:34:06.147Z,8.00
2022-10-09T07:34:52.164Z,8.00
2022-10-09T07:35:38.174Z,8.10
2022-10-09T07:36:24.190Z,8.10
2022-10-09T07:37:10.187Z,8.10
2022-10-09T07:37:56.194Z,8.10
2022-10-09T07:38:42.279Z,8.20
2022-10-09T07:39:28.176Z,8.20
2022-10-09T07:40:14.353Z,8.20
2022-10-09T07:41:00.182Z,8.20
2022-10-09T07:41:46.188Z,8.20
2022-10-09T07:42:32.185Z,8.20
2022-10-09T07:43:18.228Z,8.30
2022-10-09T07:44:04.238Z,8.30
2022-10-09T07:44:50.256Z,8.30
2022-10-09T07:45:36.355Z,8.30
2022-10-09T07:46:22.235Z,8.40
2022-10-09T07:47:08.216Z,8.40
2022-10-09T07:47:54.272Z,8.40
2022-10-09T07:48:40.247Z,8.50
2022-10-09T07:49:26.218Z,8.50
2022-10-09T07:50:12.251Z,8.50
2022-10-09T07:50:58.250Z,8.50
2022-10-09T07:51:44.281Z,8.50
2022-10-09T07:52:30.298Z,8.60
2022-10-09T07:53:16.209Z,8.60
2022-10-09T07:54:02.365Z,8.60
2022-10-09T07:54:48.268Z,8.60
2022-10-09T07:55:34.272Z,8.60
2022-10-09T07:56:20.277Z,8.70
2022-10-09T07:57:06.283Z,8.70
2022-10-09T07:57:52.344Z,8.70
2022-10-09T07:58:38.296Z,8.70
2022-10-09T07:59:24.271Z,8.80
2022-10-09T08:00:10.329Z,8.80
2022-10-09T08:00:56.245Z,8.80
2022-10-09T08:01:42.353Z,8.80
2022-10-09T08:02:28.359Z,8.90
2022-10-09T08:03:14.282Z,8.90
2022-10-09T08:04:00.393Z,8.90
2022-10-09T08:04:46.272Z,8.90
2022-10-09T08:05:32.244Z,9.00
2022-10-09T08:06:18.245Z,9.00
2022-10-09T08:07:04.263Z,9.00
2022-10-09T08:07:50.316Z,9.10
2022-10-09T08:08:36.312Z,9.10
2022-10-09T08:09:22.312Z,9.10
2022-10-09T08:10:08.297Z,9.10
2022-10-09T08:10:54.346Z,9.20
2022-10-09T08:11:40.559Z,9.20
2022-10-09T08:12:26.382Z,9.20
2022-10-09T08:13:12.313Z,9.20
2022-10-09T08:13:58.330Z,9.30
2022-10-09T08:14:44.340Z,9.30
2022-10-09T08:15:30.425Z,9.30
2022-10-09T08:16:16.373Z,9.40
2022-10-09T08:17:02.397Z,9.40
2022-10-09T08:17:48.343Z,9.40
2022-10-09T08:18:34.332Z,9.50
2022-10-09T08:19:20.371Z,9.50
2022-10-09T08:20:06.381Z,9.50
2022-10-09T08:20:52.376Z,9.60
2022-10-09T08:21:38.310Z,9.60
2022-10-09T08:22:24.393Z,9.60
2022-10-09T08:23:10.321Z,9.70
2022-10-09T08:23:56.424Z,9.70
2022-10-09T08:24:42.292Z,9.70
2022-10-09T08:25:28.382Z,9.80
2022-10-09T08:26:14.367Z,9.80
2022-10-09T08:27:00.421Z,9.90
2022-10-09T08:27:46.453Z,9.90
2022-10-09T08:28:32.552Z,9.90
2022-10-09T08:29:18.343Z,9.90
2022-10-09T08:30:04.523Z,10.00
2022-10-09T08:30:50.508Z,10.00
2022-10-09T08:31:36.404Z,10.10
2022-10-09T08:32:22.447Z,10.10
2022-10-09T08:33:08.466Z,10.10
2022-10-09T08:33:54.418Z,10.20
2022-10-09T08:34:40.329Z,10.30
2022-10-09T08:35:26.898Z,10.30
2022-10-09T08:36:12.380Z,10.30
2022-10-09T08:36:58.338Z,10.40
2022-10-09T08:37:44.423Z,10.40
2022-10-09T08:38:46.691Z,10.50
2022-10-09T08:39:16.413Z,10.60
2022-10-09T08:40:02.624Z,10.60
2022-10-09T08:40:56.127Z,10.70
2022-10-09T08:41:34.397Z,10.70
2022-10-09T08:42:20.472Z,10.80
2022-10-09T08:43:06.401Z,10.80
2022-10-09T08:43:52.472Z,10.90
2022-10-09T08:44:38.490Z,11.10
2022-10-09T08:45:24.526Z,11.20
2022-10-09T08:46:10.505Z,11.30
2022-10-09T08:46:56.481Z,11.30
2022-10-09T08:47:42.412Z,11.40
2022-10-09T08:48:28.447Z,11.40
2022-10-09T08:49:14.570Z,11.50
2022-10-09T08:50:00.632Z,11.60
2022-10-09T08:50:46.544Z,11.60
2022-10-09T08:51:32.584Z,11.70
2022-10-09T08:52:18.545Z,11.90
2022-10-09T08:53:04.551Z,12.00
2022-10-09T08:53:50.624Z,12.20
2022-10-09T08:54:36.612Z,12.30
2022-10-09T08:55:22.600Z,12.60
2022-10-09T08:56:08.542Z,12.80
2022-10-09T08:56:54.529Z,13.30
2022-10-09T08:57:40.553Z,13.60
2022-10-09T08:58:26.551Z,13.80
2022-10-09T08:59:12.559Z,14.20
2022-10-09T08:59:58.535Z,14.40
2022-10-09T09:00:44.675Z,14.60
2022-10-09T09:01:30.812Z,15.00
2022-10-09T09:02:16.581Z,15.20
2022-10-09T09:03:02.818Z,15.50
2022-10-09T09:03:48.637Z,15.60
2022-10-09T09:04:34.591Z,15.70
2022-10-09T09:05:20.598Z,15.80
2022-10-09T09:06:06.593Z,15.80
2022-10-09T09:06:52.660Z,15.80
2022-10-09T09:07:38.590Z,15.90
2022-10-09T09:08:24.582Z,15.90
2022-10-09T09:09:10.643Z,15.90
2022-10-09T09:09:56.711Z,15.90
2022-10-09T09:10:42.591Z,15.90
2022-10-09T09:11:28.704Z,16.00
2022-10-09T09:12:14.650Z,16.00
2022-10-09T09:13:00.707Z,16.00
2022-10-09T09:13:46.631Z,15.90
2022-10-09T09:14:32.795Z,15.80
2022-10-09T09:15:18.785Z,15.80
2022-10-09T09:16:04.741Z,15.70
2022-10-09T09:16:50.688Z,15.70
2022-10-09T09:17:36.678Z,15.70
2022-10-09T09:18:22.745Z,15.60
2022-10-09T09:19:08.664Z,15.60
2022-10-09T09:19:54.645Z,15.60
2022-10-09T09:20:40.653Z,15.60
2022-10-09T09:21:26.752Z,15.70
2022-10-09T09:22:12.676Z,15.80
2022-10-09T09:22:58.618Z,15.80
2022-10-09T09:23:44.666Z,16.10
2022-10-09T09:24:30.732Z,16.40
2022-10-09T09:25:16.645Z,16.60
2022-10-09T09:26:02.812Z,16.90
2022-10-09T09:26:48.760Z,17.30
2022-10-09T09:27:34.608Z,17.70
2022-10-09T09:28:20.739Z,18.00
2022-10-09T09:29:06.693Z,18.30
2022-10-09T09:29:52.767Z,18.50
2022-10-09T09:30:38.753Z,18.70
2022-10-09T09:31:24.880Z,18.80
2022-10-09T09:32:10.758Z,19.20
2022-10-09T09:32:56.803Z,19.40
2022-10-09T09:33:44.797Z,19.70
2022-10-09T09:34:28.651Z,19.80
2022-10-09T09:35:14.931Z,20.00
2022-10-09T09:36:00.856Z,20.10
2022-10-09T09:36:46.677Z,20.40
2022-10-09T09:37:32.774Z,20.50
2022-10-09T09:38:18.735Z,20.80
2022-10-09T09:40:38.259Z,21.10
2022-10-09T09:41:22.724Z,21.10
2022-10-09T09:42:08.704Z,21.30
2022-10-09T09:42:54.821Z,21.50
2022-10-09T09:43:40.784Z,21.60
2022-10-09T09:44:26.738Z,21.60
2022-10-09T09:45:12.753Z,21.80
2022-10-09T09:45:58.725Z,21.80
2022-10-09T09:46:44.783Z,22.00
2022-10-09T09:47:30.734Z,22.10
2022-10-09T09:48:16.736Z,22.20
2022-10-09T09:49:07.093Z,22.50
2022-10-09T09:49:48.812Z,22.60
2022-10-09T09:50:48.598Z,22.60
2022-10-09T09:51:28.659Z,22.60
2022-10-09T09:52:06.765Z,22.50
2022-10-09T09:52:52.741Z,22.40
2022-10-09T09:53:38.739Z,22.20
2022-10-09T09:54:24.792Z,21.90
2022-10-09T09:55:10.901Z,21.60
2022-10-09T09:55:56.728Z,21.50
2022-10-09T09:57:07.020Z,21.30
2022-10-09T09:57:28.760Z,21.20
2022-10-09T09:58:14.879Z,21.10
2022-10-09T09:59:00.797Z,20.80
2022-10-09T09:59:46.769Z,20.50
2022-10-09T10:00:33.279Z,20.20
2022-10-09T10:01:18.916Z,19.80
2022-10-09T10:02:04.866Z,19.70
2022-10-09T10:02:51.507Z,19.50
2022-10-09T10:03:36.768Z,19.30
2022-10-09T10:04:22.795Z,19.30
2022-10-09T10:05:08.806Z,19.20
2022-10-09T10:05:54.866Z,19.20
2022-10-09T10:06:40.867Z,19.20
2022-10-09T10:07:26.793Z,19.40
2022-10-09T10:08:12.802Z,19.50
2022-10-09T10:08:58.749Z,19.80
2022-10-09T10:09:44.850Z,20.10
2022-10-09T10:10:30.803Z,20.40